Capitol Logistics 792


NZAA
Auckland International Airport
Auckland, NZ
YSSY
Kingsford Smith International Airport
Sydney, AU

Activity Log

Date Flight Route Aircraft Duration
09/15/2019 CPX792 BATO3P MADEP N774 TESAT B744 2h 52m
05/25/2019 CPX792 BATO3P MADEP N774 MARLN MARLN2 B744 3h 02m

Route Details

Aircraft Information
Primary: Boeing 747-400BCF
Backup: Boeing 777-200LRF
Route Data
Distance: 1167nm
Sched. Duration: 3h 00m
Avg. Duration: 2h 77m (-23m)
Times Flown: 2
Recm'd Route: MADEP N774 MARLN
Planned Altitude: 36,000ft
Origin Wx: NZAA 311330Z AUTO 12011KT 9999 -RA FEW070/// OVC090/// 14/12 Q1016 TEMPO 6000 RA
Dest. Wx: YSSY 311330Z 34007KT CAVOK 15/12 Q1014 NOSIG
Notes:

Financial History
Total Freight: 349,493lbs
Average Load: 174,747lbs/flt
Fuel Used: 120,796lbs
Avg. Fuel Used: 60,398lbs/flt
Fuel Expense: $45,902
Avg. Fuel Expense: $22,951
Avg. Fuel Cost: $0.38/lbs
Total Gross Income: $1,216,236
Pilot Pay: $458
Total Expenses: $131,457
Total Revenue: $1,037,462
Average Revenue: $608,117.84